x

Cape Suckling - 35 Nm Se Of Kayak Is, Ak (46082) Wave Buoy

7:50pm - Fri 30th Jan 2015 All times are AKST. -9 hours from GMT.

  • Sig Wave height 5.9ft
  • Peak Period 10s
  • Average Period 6s
  • Wind
    13mph, 16mph gusts
  • Sea Temp 45°f
  • Air Temp 43°f
  • Sea Pressure 1030mb
  • Cape Suckling - 35 Nm Se Of Kayak Is, Ak
  • Cape Suckling - 35 Nm Se Of Kayak Is, Ak

More Historic Weather Station data

Upgrade to MSW Pro to gain access to the past 30 days of data for over 8000 Wavebouys and Weather Stations around the globe.

Join Pro

Comparision Forecast

View Surf forecast
   
Fri 01/30 7:50pm 6ft 10s 6s 13 16 mph 1030mb 45f 43f
6:50pm 6ft 9s 6s 16 18 mph 1029.8mb 45f 43f
5:50pm 6ft 10s 6s 13 18 mph 1029.6mb 45f 44f
4:50pm 6.5ft 10s 6s 18 20 mph 1029.1mb 46f 43f
3:50pm 7ft 8s 5s 13 16 mph 1029.1mb 46f 43f
2:50pm 7ft 11s 6s 18 20 mph 1028.7mb 46f 43f
1:50pm 7ft 10s 6s 18 22 mph 1028.3mb 45f 43f
12:50pm 6.5ft 10s 5s 18 22 mph 1027.8mb 45f 43f
11:50am 7ft 10s 6s 18 22 mph 1027.2mb 45f 43f
10:50am 7ft 9s 5s 18 22 mph 1026.8mb 45f 43f
9:50am 7ft 9s 5s 22 27 mph 1026.2mb 45f 42f
8:50am 7ft 9s 5s 20 22 mph 1025.6mb 45f 42f
7:50am 7ft 10s 5s 20 25 mph 1025mb 45f 42f
6:50am 7.5ft 8s 5s 22 29 mph 1024.7mb 45f 42f
5:50am 6.5ft 9s 5s 25 27 mph 1024.6mb 45f 42f
4:50am 7ft 9s 5s 20 25 mph 1024.7mb 45f 41f
3:50am 7ft 10s 5s 22 27 mph 1024.7mb 45f 41f
2:50am 7ft 9s 5s 22 27 mph 1024.3mb 45f 41f
1:50am 7.5ft 9s 6s 20 22 mph 1024.1mb 45f 43f
12:50am 6.5ft 9s 6s 16 18 mph 1023.9mb 45f 43f
Thu 01/29 11:50pm 7ft 10s 6s 18 22 mph 1023.5mb 45f 44f
10:50pm 7.5ft 9s 6s 16 20 mph 1023.2mb 45f 44f
9:50pm 8ft 9s 7s 16 18 mph 1022.8mb 45f 43f
8:50pm 8ft 10s 6s 11 13 mph 1022.5mb 45f 43f
7:50pm 8ft 10s 6s 11 13 mph 1021.8mb 45f 43f
6:50pm 8ft 9s 7s 13 16 mph 1021.4mb 45f 43f
5:50pm 8ft 10s 6s 13 16 mph 1020.7mb 45f 43f
4:50pm 8ft 9s 6s 13 16 mph 1020mb 45f 43f
3:50pm 8ft 10s 6s 13 16 mph 1019.1mb 45f 44f
2:50pm 9ft 10s 7s 16 18 mph 1018.7mb 45f 42f
1:50pm 8ft 10s 6s 18 20 mph 1017.8mb 45f 43f
12:50pm 9ft 10s  -  18 22 mph 1017.1mb 45f 44f
11:50am 9.5ft 10s 7s 16 18 mph 1016.4mb 45f 43f
10:50am 9ft 10s 7s 18 22 mph 1015.9mb 46f 42f
9:50am 9.5ft 9s 7s 18 22 mph 1015.2mb 46f 42f
8:50am 9.5ft 10s 7s 13 18 mph 1014.5mb 46f 42f
7:50am 9ft 10s 7s 13 16 mph 1013.8mb 45f 42f
6:50am 9.5ft 9s 6s 20 31 mph 1013.3mb 45f 41f
5:50am 9.5ft 10s 6s 25 29 mph 1012.9mb 45f 42f
4:50am 10ft 9s 7s 22 27 mph 1012.8mb 45f 42f
3:50am 10.5ft 10s 7s 16 20 mph 1012.7mb 46f 42f
2:50am 10ft 10s 7s 20 25 mph 1012.3mb 46f 42f
1:50am 12ft 10s 8s 20 22 mph 1011.9mb 46f 42f
12:50am 11ft 10s 7s 18 20 mph 1011.4mb 46f 43f
Wed 01/28 11:50pm 11ft 10s 7s 18 22 mph 1011mb 46f 42f
10:50pm 11ft 9s 7s 18 22 mph 1010.4mb 46f 42f
9:50pm 10.5ft 10s 7s 20 25 mph 1009.8mb 46f 43f
8:50pm 10ft 11s 6s 22 27 mph 1009.5mb 46f 42f
7:50pm 10ft 10s 6s 25 29 mph 1009.2mb 45f 43f
6:50pm 12ft 9s 7s 25 29 mph 1009.2mb 45f 42f
5:50pm 11ft 9s 6s 25 31 mph 1009.2mb 46f 42f
4:50pm 11ft 10s 6s 27 34 mph 1009.3mb 46f 42f
3:50pm 12.5ft 10s 7s 27 31 mph 1009.6mb 46f 42f
2:50pm 13.5ft 10s 7s 29 38 mph 1009.9mb 46f 41f
1:50pm 11.5ft 9s 6s 27 34 mph 1010.5mb 46f 40f
12:50pm 10.5ft 9s 6s 29 34 mph 1011.2mb 46f 40f
11:50am 11ft 8s 6s 29 34 mph 1011.6mb 46f 40f
10:50am 9ft 7s 5s 27 36 mph 1012.2mb 46f 39f
9:50am 8ft 8s 5s 27 31 mph 1012.8mb 46f 38f
8:50am 8ft 7s 5s 29 36 mph 1013mb 46f 39f
7:50am 8ft 6s 5s 29 36 mph 1013mb 46f 41f
6:50am 8.5ft 6s 5s 29 34 mph 1013.4mb 46f 40f
5:50am 8ft 6s 5s 29 36 mph 1014.3mb 46f 40f
4:50am 7.5ft 6s 5s 29 36 mph 1014.8mb 46f 40f
3:50am 7ft 6s 5s 29 34 mph 1015.3mb 46f 39f
2:50am 7ft 6s 5s 29 34 mph 1015.9mb 46f 39f
1:50am 7.5ft 6s 5s 31 36 mph 1016mb 46f 39f
12:50am 7ft 6s 5s 29 34 mph 1016.3mb 46f 39f
Tue 01/27 11:50pm 6ft 5s 5s 27 31 mph 1016.3mb 46f 38f
10:50pm 6.5ft 5s 5s 29 34 mph 1015.9mb 46f 38f
9:50pm 5.5ft 5s 4s 22 27 mph 1016mb 46f 37f
8:50pm 4.5ft 9s 4s 22 25 mph 1015.6mb 46f 37f
7:50pm 4.5ft 9s 7s 16 20 mph 1015.3mb 46f 38f
6:50pm 4.5ft 9s 7s 11 16 mph 1015.1mb 46f 38f
5:50pm 4ft 9s 7s 9 13 mph 1014.7mb 46f 38f
4:50pm 4ft 10s 7s 7 9 mph 1014.3mb 46f 37f
3:50pm 4.5ft 9s 8s 7 9 mph 1014mb 46f 37f
2:50pm 4.5ft 10s 8s 2 4 mph 1013.9mb 46f 36f
1:50pm 4.5ft 10s 8s 2 4 mph 1014mb 46f 37f
12:50pm 4.5ft 10s 8s 2 7 mph 1013.8mb 46f 36f
11:50am 4.5ft 9s 7s 4 7 mph 1013.5mb 46f 36f
10:50am 4.5ft 10s 7s 7 9 mph 1013.2mb 46f 35f
9:50am 4ft 10s 6s 7 9 mph 1012.6mb 46f 35f
8:50am 4.5ft 11s 7s 7 11 mph 1012mb 46f 35f
7:50am 4.5ft 10s 7s 9 13 mph 1011.5mb 46f 35f
6:50am 5ft 10s 7s 11 16 mph 1011.4mb 46f 36f